Flight Track Log - Related Links

Times and Time Zones

All times are in EDT time to prevent confusion due to time zone crossing. See the RPA3247 flight status page for this flight to view local times or setup timezone preferences in your user account.

Time Position Orientation Groundspeed Altitude Reporting Facility
EDT Latitude Longitude Course Direction KTS MPH feet Rate Location/Type
Wed 09:32:32 PM 38.8167 -77.0333 233° Southwest 156 180 1,600  Level Potomac TRACON
Wed 09:34:00 PM 38.6852 -77.3463 237° Southwest  Level FlightAware Approximate
Wed 09:34:40 PM 38.6897 -77.0572 188° South 220 253 6,200  Level Washington Center
Wed 09:35:00 PM 38.6266 -77.4494 234° Southwest  Level FlightAware Approximate
Wed 09:35:38 PM 38.6636 -77.1522 251° West 214 246 9,200  Level Washington Center
Wed 09:36:00 PM 38.5841 -77.5642 247° West  Level FlightAware Approximate
Wed 09:36:39 PM 38.6369 -77.2581 252° West 265 305 10,800  Level Washington Center
Wed 09:37:00 PM 38.5283 -77.6695 233° Southwest  Level FlightAware Approximate
Wed 09:37:40 PM 38.6039 -77.3850 252° West 326 375 12,600  Level Washington Center
Wed 09:38:40 PM 38.5667 -77.5142 250° West 374 430 14,500 2,033 Climbing Washington Center
Wed 09:39:41 PM 38.5228 -77.6431 247° West 394 453 16,700 1,881 Climbing Washington Center
Wed 09:40:38 PM 38.4703 -77.7767 243° Southwest 413 475 18,200 1,664 Climbing Washington Center
Wed 09:41:40 PM 38.4136 -77.9078 241° Southwest 418 481 20,000 1,700 Climbing Washington Center
Wed 09:42:38 PM 38.3567 -78.0436 242° Southwest 428 493 21,600 1,462 Climbing Washington Center
Wed 09:43:39 PM 38.2975 -78.1819 241° Southwest 434 499 22,900 1,230 Climbing Washington Center
Wed 09:44:40 PM 38.2403 -78.3225 243° Southwest 439 505 24,100 1,279 Climbing Washington Center
Wed 09:45:41 PM 38.1783 -78.4683 242° Southwest 454 522 25,500 1,261 Climbing Washington Center
Wed 09:46:39 PM 38.1186 -78.6111 242° Southwest 454 522 26,600 950 Climbing Washington Center
Wed 09:47:41 PM 38.0586 -78.7564 242° Southwest 459 528 27,400 807 Climbing Washington Center
Wed 09:48:38 PM 37.9875 -78.9194 241° Southwest 475 547 28,200 821 Climbing Washington Center
Wed 09:49:38 PM 37.9228 -79.0667 241° Southwest 480 552 29,000 800 Climbing Washington Center
Wed 09:50:38 PM 37.8536 -79.2133 239° Southwest 485 558 29,800 800 Climbing Washington Center
Wed 09:51:38 PM 37.7828 -79.3544 238° Southwest 485 558 30,600 1,438 Climbing Washington Center
Wed 09:52:39 PM 37.7117 -79.4900 236° Southwest 472 543 32,700 1,736 Climbing Washington Center
Wed 09:53:39 PM 37.6536 -79.6053 238° Southwest 451 519 34,100 1,190 Climbing Washington Center
Wed 09:54:40 PM 37.5861 -79.7458 239° Southwest 436 502 35,100 893 Climbing Washington Center
Wed 09:55:40 PM 37.5233 -79.8733 238° Southwest 426 490 35,900 458 Climbing Washington Center
Wed 09:56:38 PM 37.4625 -79.9981 238° Southwest 426 490 36,000 38 Climbing Washington Center
Wed 09:58:16 PM 37.3636 -80.1903 237° Southwest 440 506 36,000  Level Atlanta Center
Wed 09:59:16 PM 37.2931 -80.3294 238° Southwest 440 506 36,000  Level Atlanta Center
Wed 10:00:16 PM 37.2300 -80.4547 238° Southwest 440 506 36,000  Level Atlanta Center
Wed 10:01:16 PM 37.1669 -80.5800 238° Southwest 445 512 36,000  Level Atlanta Center
Wed 10:02:16 PM 37.1036 -80.7053 238° Southwest 445 512 36,000  Level Atlanta Center
Wed 10:03:16 PM 37.0461 -80.8194 238° Southwest 445 512 36,000  Level Atlanta Center
Wed 10:04:16 PM 36.9825 -80.9414 237° Southwest 445 512 36,000  Level Atlanta Center
Wed 10:05:16 PM 36.9169 -81.0686 237° Southwest 445 512 36,000  Level Atlanta Center
Wed 10:06:16 PM 36.8531 -81.1931 237° Southwest 445 512 36,000  Level Atlanta Center
Wed 10:07:16 PM 36.7833 -81.3328 238° Southwest 445 512 36,000  Level Atlanta Center
Wed 10:08:16 PM 36.7214 -81.4567 238° Southwest 439 505 36,000  Level Atlanta Center
Wed 10:09:16 PM 36.6553 -81.5806 236° Southwest 429 494 36,000  Level Atlanta Center
Wed 10:10:16 PM 36.5889 -81.7067 237° Southwest 435 501 36,000  Level Atlanta Center
Wed 10:11:16 PM 36.5200 -81.8275 235° Southwest 440 506 36,000  Level Atlanta Center
Wed 10:12:16 PM 36.4536 -81.9558 237° Southwest 440 506 36,000  Level Atlanta Center
Wed 10:13:16 PM 36.3847 -82.0789 235° Southwest 440 506 36,000  Level Atlanta Center
Wed 10:14:16 PM 36.3239 -82.1886 235° Southwest 440 506 36,000  Level Atlanta Center
Wed 10:15:16 PM 36.2567 -82.3136 236° Southwest 446 513 36,000  Level Atlanta Center
Wed 10:16:16 PM 36.1875 -82.4386 236° Southwest 446 513 36,000  Level Atlanta Center
Wed 10:17:16 PM 36.1225 -82.5608 237° Southwest 440 506 36,000  Level Atlanta Center
Wed 10:18:16 PM 36.0550 -82.6853 236° Southwest 440 506 36,000  Level Atlanta Center
Wed 10:19:16 PM 35.9875 -82.8069 236° Southwest 446 513 36,000  Level Atlanta Center
Wed 10:20:16 PM 35.9197 -82.9311 236° Southwest 446 513 36,000  Level Atlanta Center
Wed 10:21:16 PM 35.8500 -83.0550 235° Southwest 446 513 36,000  Level Atlanta Center
Wed 10:22:16 PM 35.7819 -83.1786 236° Southwest 441 507 36,000  Level Atlanta Center
Wed 10:23:16 PM 35.7078 -83.3150 236° Southwest 441 507 36,000  Level Atlanta Center
Wed 10:24:16 PM 35.6394 -83.4331 235° Southwest 441 507 36,000  Level Atlanta Center
Wed 10:25:16 PM 35.5714 -83.5561 236° Southwest 446 513 36,000  Level Atlanta Center
Wed 10:26:16 PM 35.5008 -83.6764 234° Southwest 446 513 36,000  Level Atlanta Center
Wed 10:27:16 PM 35.4322 -83.8017 236° Southwest 446 513 36,000  Level Atlanta Center
Wed 10:28:16 PM 35.3636 -83.9217 235° Southwest 446 513 36,000  Level Atlanta Center
Wed 10:29:16 PM 35.3031 -84.0311 236° Southwest 446 513 36,000  Level Atlanta Center
Wed 10:30:16 PM 35.2300 -84.1506 233° Southwest 446 513 36,000  Level Atlanta Center
Wed 10:31:16 PM 35.1631 -84.2725 236° Southwest 446 513 36,000  Level Atlanta Center
Wed 10:32:16 PM 35.0939 -84.3917 235° Southwest 440 506 36,000  Level Atlanta Center
Wed 10:33:16 PM 35.0247 -84.5106 235° Southwest 440 506 36,000 -250 Level Atlanta Center
Wed 10:34:16 PM 34.9575 -84.6292 235° Southwest 440 506 35,500 -1,000 Descending Atlanta Center
Wed 10:35:16 PM 34.8858 -84.7503 234° Southwest 440 506 34,000 -750 Descending Atlanta Center
Wed 10:36:16 PM 34.8142 -84.8736 235° Southwest 447 514 34,000  Level Atlanta Center
Wed 10:37:16 PM 34.7381 -84.9992 234° Southwest 453 521 34,000  Level Atlanta Center
Wed 10:38:16 PM 34.6661 -85.1222 235° Southwest 453 521 34,000  Level Atlanta Center
Wed 10:39:16 PM 34.5939 -85.2475 235° Southwest 453 521 34,000  Level Atlanta Center
Wed 10:40:16 PM 34.5153 -85.3750 233° Southwest 460 529 34,000  Level Atlanta Center
Wed 10:41:16 PM 34.4408 -85.4997 234° Southwest 465 535 34,000  Level Atlanta Center
Wed 10:42:16 PM 34.3683 -85.6292 236° Southwest 471 542 34,000  Level Atlanta Center
Wed 10:43:16 PM 34.2936 -85.7536 234° Southwest 471 542 34,000  Level Atlanta Center
Wed 10:44:16 PM 34.2083 -85.8900 233° Southwest 471 542 34,000  Level Atlanta Center
Wed 10:45:16 PM 34.1333 -86.0139 234° Southwest 466 536 34,000  Level Atlanta Center
Wed 10:46:16 PM 34.0581 -86.1375 234° Southwest 466 536 34,000  Level Atlanta Center
Wed 10:47:16 PM 33.9786 -86.2658 233° Southwest 472 543 34,000  Level Atlanta Center
Wed 10:48:16 PM 33.9056 -86.3892 235° Southwest 472 543 34,000  Level Atlanta Center
Wed 10:49:16 PM 33.8278 -86.5119 233° Southwest 472 543 34,000  Level Atlanta Center
Wed 10:50:16 PM 33.7522 -86.6347 234° Southwest 472 543 34,000  Level Atlanta Center
Wed 10:51:16 PM 33.6789 -86.7522 233° Southwest 466 536 34,000  Level Atlanta Center
Wed 10:52:16 PM 33.6050 -86.8722 234° Southwest 460 529 34,000  Level Atlanta Center
Wed 10:53:16 PM 33.5314 -86.9894 233° Southwest 454 522 34,000  Level Atlanta Center
Wed 10:54:16 PM 33.4597 -87.1064 234° Southwest 449 517 34,000  Level Atlanta Center
Wed 10:55:16 PM 33.3944 -87.2111 233° Southwest 444 511 34,000  Level Atlanta Center
Wed 10:56:16 PM 33.3225 -87.3278 234° Southwest 444 511 34,000  Level Atlanta Center
Wed 10:57:16 PM 33.2483 -87.4442 233° Southwest 444 511 34,000  Level Atlanta Center
Wed 10:59:33 PM 33.0739 -87.7194 233° Southwest 441 507 34,000  Level Memphis Center
Wed 11:00:33 PM 33.0033 -87.8331 233° Southwest 441 507 34,000  Level Memphis Center
Wed 11:01:33 PM 32.9367 -87.9464 235° Southwest 436 502 34,000  Level Memphis Center
Wed 11:02:33 PM 32.8614 -88.0572 231° Southwest 436 502 34,000  Level Memphis Center
Wed 11:03:33 PM 32.7944 -88.1653 234° Southwest 436 502 34,000  Level Memphis Center
Wed 11:04:33 PM 32.7233 -88.2756 233° Southwest 431 496 34,000  Level Memphis Center
Wed 11:05:33 PM 32.6519 -88.3858 232° Southwest 431 496 34,000  Level Memphis Center
Wed 11:06:34 PM 32.5808 -88.4958 233° Southwest 426 490 34,000  Level Memphis Center
Wed 11:07:33 PM 32.5092 -88.6058 232° Southwest 426 490 34,000  Level Memphis Center
Wed 11:08:33 PM 32.4378 -88.7156 232° Southwest 426 490 34,000  Level Memphis Center
Wed 11:09:33 PM 32.3617 -88.8225 230° Southwest 426 490 34,000  Level Memphis Center
Wed 11:10:33 PM 32.2689 -88.9128 219° Southwest 426 490 34,000  Level Memphis Center
Wed 11:11:33 PM 32.1800 -89.0000 220° Southwest 426 490 34,000  Level Memphis Center
Wed 11:12:33 PM 32.0892 -89.0872 219° Southwest 426 490 34,000  Level Memphis Center
Wed 11:13:33 PM 31.9983 -89.1767 220° Southwest 432 497 34,000 -300 Level Memphis Center
Wed 11:14:33 PM 31.9072 -89.2633 219° Southwest 432 497 33,400 -1,450 Descending Memphis Center
Wed 11:15:33 PM 31.8119 -89.3528 219° Southwest 432 497 31,100 -2,176 Descending Memphis Center
Wed 11:16:04 PM 31.7739 -89.3889 219° Southwest 437 503 30,100 -2,022 Descending Houston Center
Wed 11:17:05 PM 31.6761 -89.4819 219° Southwest 451 519 28,000 -1,033 Descending Houston Center
Wed 11:18:06 PM 31.5808 -89.5719 219° Southwest 448 516 28,000  Level Houston Center
Wed 11:19:07 PM 31.4842 -89.6656 220° Southwest 453 521 28,000 -694 Level Houston Center
Wed 11:20:07 PM 31.3864 -89.7572 219° Southwest 452 520 26,600 -1,785 Descending Houston Center
Wed 11:21:08 PM 31.2731 -89.8644 219° Southwest 441 507 24,400 -2,066 Descending Houston Center
Wed 11:22:09 PM 31.1800 -89.9517 219° Southwest 431 496 22,400 -1,967 Descending Houston Center
Wed 11:23:10 PM 31.0919 -90.0358 219° Southwest 414 476 20,400 -1,918 Descending Houston Center
Wed 11:24:11 PM 31.0064 -90.1167 219° Southwest 400 460 18,500 -1,884 Descending Houston Center
Wed 11:25:11 PM 30.9222 -90.1944 218° Southwest 389 448 16,600 -1,895 Descending Houston Center
Wed 11:25:46 PM 30.8569 -90.2231 201° Southwest 383 441 15,500 -1,770 Descending Houston Center
Wed 11:26:12 PM 30.8203 -90.2233 180° South 379 436 14,800 -1,674 Descending Houston Center
Wed 11:26:29 PM 30.7836 -90.2211 177° South 378 435 14,300 -1,672 Descending Houston Center
Wed 11:27:13 PM 30.7183 -90.2156 176° South 372 428 13,100 -1,900 Descending Houston Center
Wed 11:27:29 PM 30.6831 -90.2108 173° South 366 421 12,400 -1,672 Descending Houston Center
Wed 11:28:14 PM 30.6200 -90.2078 178° South 360 414 11,400 -1,701 Descending Houston Center
Wed 11:28:36 PM 30.5744 -90.2128 185° South 340 391 10,500 -1,770 Descending Houston Center
Wed 11:29:15 PM 30.5372 -90.2319 204° Southwest 310 357 9,600 -1,745 Descending Houston Center
Wed 11:29:31 PM 30.5067 -90.2517 209° Southwest 285 328 8,900 -1,900 Descending Houston Center
Wed 11:30:15 PM 30.4669 -90.2756 207° Southwest 291 335 7,700 -2,000 Descending Houston Center
Wed 11:30:31 PM 30.4350 -90.2956 208° Southwest 281 323 6,900 -1,770 Descending Houston Center
Wed 11:31:16 PM 30.3983 -90.3183 208° Southwest 284 327 5,900 -1,770 Descending Houston Center
Wed 11:31:32 PM 30.3672 -90.3369 207° Southwest 278 320 5,100 -1,869 Descending Houston Center
Wed 11:32:17 PM 30.3181 -90.3667 208° Southwest 278 320 4,000 -1,082 Descending Houston Center
Wed 11:32:33 PM 30.3017 -90.3781 211° Southwest 269 310 4,000  Level Houston Center
Wed 11:33:17 PM 30.2536 -90.4069 207° Southwest 272 313 4,000  Level Houston Center
Wed 11:33:33 PM 30.2358 -90.4167 205° Southwest 267 307 4,000  Level Houston Center
Wed 11:34:18 PM 30.1872 -90.4472 209° Southwest 270 311 4,000  Level Houston Center
Wed 11:34:34 PM 30.1703 -90.4578 208° Southwest 264 304 4,000 -689 Level Houston Center
Wed 11:35:19 PM 30.1228 -90.4475 169° South 262 302 3,300 -1,000 Descending Houston Center
Wed 11:35:34 PM 30.1069 -90.4386 154° Southeast 232 267 3,000 -1,300 Descending Houston Center
Wed 11:36:19 PM 30.0669 -90.4192 157° South 236 272 2,000 -984 Descending Houston Center
Wed 11:36:35 PM 30.0478 -90.4119 162° South 201 231 2,000  Level Houston Center

Login

Don't have an account? Register now (free) for customized features, flight alerts, and more!